Time;durP1;ratioP1;P1;durP2;ratioP2;P2;SDS_P1;SDS_P2;PMS_P1;PMS_P2;Temp;Humidity;BMP_temperature;BMP_pressure;BME280_temperature;BME280_humidity;BME280_pressure;Samples;Min_cycle;Max_cycle;Signal;HPM_P1;HPM_P2
2022/09/13 00:02:02;;;;;;;3.38;2.80;;;20.10;99.90;;;;;;4887756;29;20207;-87
2022/09/13 00:04:39;;;;;;;3.38;2.70;;;20.20;99.90;;;;;;4900113;29;20591;-88
2022/09/13 00:07:07;;;;;;;3.28;2.95;;;20.10;99.90;;;;;;4887315;29;20199;-87
2022/09/13 00:09:36;;;;;;;2.60;2.40;;;20.10;99.90;;;;;;4895354;29;20227;-87
2022/09/13 00:12:04;;;;;;;3.15;2.85;;;20.20;99.90;;;;;;4885749;29;20199;-87
2022/09/13 00:14:31;;;;;;;3.15;2.85;;;20.10;99.90;;;;;;4883933;29;20211;-87
2022/09/13 00:16:59;;;;;;;3.20;2.90;;;20.10;99.90;;;;;;4889291;29;20204;-87
2022/09/13 00:19:26;;;;;;;3.35;2.70;;;20.10;99.90;;;;;;4887538;29;20227;-87
2022/09/13 00:21:57;;;;;;;7.22;2.83;;;20.10;99.90;;;;;;4882072;29;20211;-87
2022/09/13 00:24:25;;;;;;;2.95;2.65;;;20.10;99.90;;;;;;4919988;29;20215;-88
2022/09/13 00:26:52;;;;;;;3.08;2.88;;;20.00;99.90;;;;;;4920473;29;20206;-87
2022/09/13 00:29:20;;;;;;;5.32;3.00;;;20.10;99.90;;;;;;4918419;29;20696;-87
2022/09/13 00:31:48;;;;;;;2.83;2.63;;;20.10;99.90;;;;;;4880007;29;20293;-87
2022/09/13 00:34:17;;;;;;;2.85;2.60;;;20.10;99.90;;;;;;4883956;29;20207;-87
2022/09/13 00:36:50;;;;;;;2.70;2.50;;;20.10;99.90;;;;;;4889971;29;20561;-87
2022/09/13 00:39:22;;;;;;;3.17;2.88;;;20.20;99.90;;;;;;4895197;29;20192;-87
2022/09/13 00:41:49;;;;;;;3.33;3.03;;;20.20;99.90;;;;;;4891786;29;20207;-87
2022/09/13 00:44:54;;;;;;;3.58;2.92;;;20.20;99.90;;;;;;4885141;29;20206;-87
2022/09/13 00:47:25;;;;;;;3.55;2.85;;;20.20;99.90;;;;;;4915365;29;20204;-88
2022/09/13 00:49:56;;;;;;;3.72;3.15;;;20.10;99.90;;;;;;4887424;29;20231;-87
2022/09/13 00:52:36;;;;;;;3.10;2.80;;;20.20;99.90;;;;;;4882256;29;20204;-87
2022/09/13 00:55:16;;;;;;;3.55;2.90;;;20.20;99.90;;;;;;4877006;29;20206;-88
2022/09/13 00:57:47;;;;;;;4.25;2.95;;;20.20;99.90;;;;;;4884161;29;20211;-88
2022/09/13 01:00:21;;;;;;;3.42;3.13;;;20.10;99.90;;;;;;4912394;29;20704;-87
2022/09/13 01:02:53;;;;;;;3.92;2.60;;;20.10;99.90;;;;;;4898976;29;20206;-87
2022/09/13 01:05:30;;;;;;;2.97;2.63;;;20.20;99.90;;;;;;4880321;29;20687;-87
2022/09/13 01:07:59;;;;;;;3.42;2.65;;;20.20;99.90;;;;;;4894309;29;20207;-87
2022/09/13 01:10:32;;;;;;;2.92;2.63;;;20.20;99.90;;;;;;4885161;29;20226;-87
2022/09/13 01:13:11;;;;;;;3.45;3.15;;;20.20;99.90;;;;;;4911652;29;20594;-87
2022/09/13 01:15:42;;;;;;;2.72;2.53;;;20.20;99.90;;;;;;4889359;29;20195;-87
2022/09/13 01:18:13;;;;;;;4.25;2.72;;;20.20;99.90;;;;;;4900974;29;20207;-87
2022/09/13 01:20:59;;;;;;;2.83;2.63;;;20.10;99.90;;;;;;4899127;29;20226;-87
2022/09/13 01:24:04;;;;;;;3.75;3.05;;;20.10;99.90;;;;;;4879403;29;20213;-87
2022/09/13 01:26:57;;;;;;;3.63;2.65;;;20.10;99.90;;;;;;4886592;29;20199;-87
2022/09/13 01:30:12;;;;;;;4.32;2.60;;;20.10;99.90;;;;;;4881510;29;20214;-87
2022/09/13 01:33:04;;;;;;;2.53;2.35;;;20.10;99.90;;;;;;4859834;29;20234;-87
2022/09/13 01:35:55;;;;;;;3.17;2.88;;;20.10;99.90;;;;;;4917944;29;20204;-87
2022/09/13 01:38:40;;;;;;;2.53;2.33;;;20.10;99.90;;;;;;4878407;29;20216;-87
2022/09/13 01:41:21;;;;;;;3.65;2.50;;;20.10;99.90;;;;;;4890462;29;20794;-87
2022/09/13 01:43:57;;;;;;;4.32;2.72;;;20.00;99.90;;;;;;4881369;29;20211;-88
2022/09/13 01:46:33;;;;;;;2.80;2.30;;;20.00;99.90;;;;;;4886180;29;20215;-88
2022/09/13 01:49:15;;;;;;;2.70;2.50;;;20.00;99.90;;;;;;4884332;29;20219;-88
2022/09/13 01:51:48;;;;;;;3.78;2.60;;;20.00;99.90;;;;;;4913482;29;20204;-87
2022/09/13 01:54:31;;;;;;;3.40;3.10;;;20.00;99.90;;;;;;4891153;29;20739;-87
2022/09/13 01:57:15;;;;;;;3.25;2.50;;;19.90;99.90;;;;;;4883063;29;20223;-88
2022/09/13 01:59:48;;;;;;;2.95;2.70;;;20.00;99.90;;;;;;4880309;29;20212;-87
2022/09/13 02:02:24;;;;;;;3.55;2.65;;;19.90;99.90;;;;;;4921445;29;20677;-88
2022/09/13 02:05:01;;;;;;;5.07;2.42;;;19.90;99.90;;;;;;4886947;29;20203;-88
2022/09/13 02:07:36;;;;;;;4.07;2.67;;;19.90;99.90;;;;;;4887569;29;20207;-87
2022/09/13 02:10:08;;;;;;;2.83;2.63;;;19.90;99.90;;;;;;4889647;29;20700;-87
2022/09/13 02:12:41;;;;;;;3.38;2.60;;;19.90;99.90;;;;;;4890576;29;20211;-88
2022/09/13 02:15:15;;;;;;;2.92;2.50;;;19.90;99.90;;;;;;4891961;29;20200;-87
2022/09/13 02:17:46;;;;;;;3.13;2.90;;;19.90;99.90;;;;;;4887731;29;20200;-87
2022/09/13 02:20:24;;;;;;;2.90;2.63;;;19.90;99.90;;;;;;4900335;29;20223;-88
2022/09/13 02:22:57;;;;;;;4.03;2.67;;;19.90;99.90;;;;;;4887305;29;20210;-87
2022/09/13 02:25:26;;;;;;;3.25;2.58;;;19.80;99.90;;;;;;4886269;29;20216;-87
2022/09/13 02:27:58;;;;;;;3.72;3.22;;;19.80;99.90;;;;;;4876052;29;20665;-87
2022/09/13 02:30:39;;;;;;;4.00;3.28;;;19.80;99.90;;;;;;4911232;29;20484;-87
2022/09/13 02:33:11;;;;;;;4.00;3.25;;;19.80;99.90;;;;;;4911210;29;20711;-87
2022/09/13 02:35:46;;;;;;;5.43;3.47;;;19.80;99.90;;;;;;4867489;29;20214;-88
2022/09/13 02:38:21;;;;;;;3.58;3.20;;;19.80;99.90;;;;;;4890799;29;20215;-87
2022/09/13 02:41:01;;;;;;;5.40;3.70;;;19.80;99.90;;;;;;4894228;29;20219;-88
2022/09/13 02:43:36;;;;;;;4.97;3.33;;;19.90;99.90;;;;;;4911324;29;20214;-87
2022/09/13 02:46:15;;;;;;;3.67;3.33;;;19.80;99.90;;;;;;4879960;29;20203;-87
2022/09/13 02:48:52;;;;;;;4.30;3.05;;;19.80;99.90;;;;;;4873902;29;20214;-88
2022/09/13 02:51:30;;;;;;;3.13;2.83;;;19.80;99.90;;;;;;4874079;29;20235;-86
2022/09/13 02:54:09;;;;;;;6.13;2.72;;;19.80;99.90;;;;;;4882067;29;20215;-87
2022/09/13 02:56:48;;;;;;;3.13;2.80;;;19.80;99.90;;;;;;4883664;29;20195;-87
2022/09/13 02:59:17;;;;;;;3.92;2.50;;;19.70;99.90;;;;;;4894145;29;20198;-87
2022/09/13 03:01:49;;;;;;;2.85;2.65;;;19.70;99.90;;;;;;4884355;29;20211;-88
2022/09/13 03:04:17;;;;;;;4.50;2.80;;;19.70;99.90;;;;;;4886032;29;20203;-87
2022/09/13 03:06:46;;;;;;;2.95;2.70;;;19.70;99.90;;;;;;4880732;29;20211;-87
2022/09/13 03:09:14;;;;;;;3.72;2.80;;;19.70;99.90;;;;;;4885340;29;20226;-87
2022/09/13 03:11:56;;;;;;;3.97;2.88;;;19.70;99.90;;;;;;4915212;29;20207;-87
2022/09/13 03:14:37;;;;;;;3.53;2.90;;;19.70;99.90;;;;;;4888885;29;20203;-87
2022/09/13 03:17:20;;;;;;;3.88;2.85;;;19.70;99.90;;;;;;4885316;29;20575;-87
2022/09/13 03:20:05;;;;;;;2.75;2.55;;;19.80;99.90;;;;;;4891386;29;20227;-88
2022/09/13 03:23:05;;;;;;;4.78;2.90;;;19.70;99.90;;;;;;4917418;29;20951;-87
2022/09/13 03:25:50;;;;;;;3.65;3.17;;;19.70;99.90;;;;;;4883543;29;20215;-87
2022/09/13 03:28:29;;;;;;;4.80;2.75;;;19.70;99.90;;;;;;4887659;29;20207;-87
2022/09/13 03:31:08;;;;;;;4.35;3.00;;;19.80;99.90;;;;;;4887826;29;20230;-88
2022/09/13 03:33:45;;;;;;;3.22;2.85;;;19.70;99.90;;;;;;4902274;29;20195;-87
2022/09/13 03:36:19;;;;;;;3.25;2.88;;;19.70;99.90;;;;;;4895603;29;20691;-87
2022/09/13 03:38:56;;;;;;;3.97;2.63;;;19.70;99.90;;;;;;4911851;29;20199;-88
2022/09/13 03:41:30;;;;;;;3.85;3.13;;;19.70;99.90;;;;;;4919363;29;20223;-87
2022/09/13 03:44:01;;;;;;;4.72;2.85;;;19.70;99.90;;;;;;4888214;29;20219;-87
2022/09/13 03:46:35;;;;;;;4.28;3.35;;;19.60;99.90;;;;;;4891159;29;20215;-87
2022/09/13 03:49:05;;;;;;;3.38;3.08;;;19.60;99.90;;;;;;4884132;29;20204;-88
2022/09/13 03:51:33;;;;;;;3.38;2.90;;;19.60;99.90;;;;;;4870604;29;20234;-88
2022/09/13 03:54:05;;;;;;;4.63;2.97;;;19.70;99.90;;;;;;4911871;29;20211;-87
2022/09/13 03:56:33;;;;;;;3.17;2.88;;;19.60;99.90;;;;;;4882458;29;20216;-87
2022/09/13 03:59:01;;;;;;;3.90;2.67;;;19.60;99.90;;;;;;4880853;29;20204;-87
2022/09/13 04:01:28;;;;;;;5.10;3.20;;;19.60;99.90;;;;;;4879207;29;20232;-84
2022/09/13 04:03:56;;;;;;;4.53;3.03;;;19.60;99.90;;;;;;4894819;29;20207;-83
2022/09/13 04:06:23;;;;;;;3.25;2.95;;;19.60;99.90;;;;;;4873681;29;20215;-83
2022/09/13 04:08:51;;;;;;;3.80;3.08;;;19.60;99.90;;;;;;4880456;29;20227;-83
2022/09/13 04:11:22;;;;;;;3.45;2.90;;;19.50;99.90;;;;;;4887386;29;20238;-83
2022/09/13 04:13:51;;;;;;;4.03;2.78;;;19.60;99.90;;;;;;4883642;29;20231;-83
2022/09/13 04:16:18;;;;;;;3.10;2.80;;;19.60;99.90;;;;;;4883867;29;20214;-83
2022/09/13 04:18:46;;;;;;;3.08;2.47;;;19.60;99.90;;;;;;4883125;29;20203;-83
2022/09/13 04:21:14;;;;;;;4.00;3.00;;;19.60;99.90;;;;;;4907819;29;20226;-83
2022/09/13 04:23:42;;;;;;;3.83;3.28;;;19.50;99.90;;;;;;4885330;29;20207;-83
2022/09/13 04:26:10;;;;;;;3.72;2.80;;;19.50;99.90;;;;;;4904247;29;20223;-83
2022/09/13 04:28:39;;;;;;;3.35;2.83;;;19.50;99.90;;;;;;4882811;29;20208;-83
2022/09/13 04:31:06;;;;;;;4.10;2.90;;;19.40;99.90;;;;;;4881529;29;20232;-83
2022/09/13 04:33:35;;;;;;;4.93;2.90;;;19.40;99.90;;;;;;4886016;29;20222;-83
2022/09/13 04:36:03;;;;;;;7.22;3.20;;;19.50;99.90;;;;;;4884583;29;20208;-83
2022/09/13 04:38:30;;;;;;;5.13;3.13;;;19.50;99.90;;;;;;4881283;29;20573;-83
2022/09/13 04:40:58;;;;;;;3.15;2.85;;;19.40;99.90;;;;;;4887160;29;20220;-83
2022/09/13 04:43:25;;;;;;;5.15;2.90;;;19.50;99.90;;;;;;4883702;29;20207;-83
2022/09/13 04:45:54;;;;;;;3.30;3.00;;;19.50;99.90;;;;;;4887417;29;20208;-83
2022/09/13 04:48:21;;;;;;;3.40;3.10;;;19.40;99.90;;;;;;4913756;29;20199;-83
2022/09/13 04:50:49;;;;;;;3.53;3.22;;;19.40;99.90;;;;;;4890545;29;20592;-83
2022/09/13 04:53:16;;;;;;;5.15;3.13;;;19.40;99.90;;;;;;4882886;29;20213;-83
2022/09/13 04:55:44;;;;;;;4.43;3.20;;;19.40;99.90;;;;;;4888901;29;20216;-83
2022/09/13 04:58:11;;;;;;;3.63;3.15;;;19.40;99.90;;;;;;4886780;29;20203;-83
2022/09/13 05:00:39;;;;;;;4.50;3.08;;;19.40;99.90;;;;;;4884780;29;20223;-83
2022/09/13 05:03:08;;;;;;;5.90;4.00;;;19.30;99.90;;;;;;4881627;29;20204;-83
2022/09/13 05:05:35;;;;;;;5.55;4.05;;;19.30;99.90;;;;;;4915302;29;20203;-83
2022/09/13 05:08:02;;;;;;;5.53;2.95;;;19.30;99.90;;;;;;4881794;29;20666;-83
2022/09/13 05:10:30;;;;;;;3.95;3.20;;;19.30;99.90;;;;;;4920019;29;20227;-83
2022/09/13 05:12:57;;;;;;;5.55;3.72;;;19.30;99.90;;;;;;4883007;29;20240;-83
2022/09/13 05:15:25;;;;;;;3.85;3.05;;;19.20;99.90;;;;;;4892416;29;20210;-83
2022/09/13 05:17:52;;;;;;;4.03;3.45;;;19.20;99.90;;;;;;4887228;29;20203;-83
2022/09/13 05:20:21;;;;;;;3.72;3.42;;;19.20;99.90;;;;;;4886839;29;20219;-83
2022/09/13 05:22:48;;;;;;;4.38;3.47;;;19.30;99.90;;;;;;4889332;29;20200;-83
2022/09/13 05:25:16;;;;;;;3.78;3.33;;;19.30;99.90;;;;;;4922623;29;20195;-83
2022/09/13 05:27:45;;;;;;;3.85;3.45;;;19.30;99.90;;;;;;4908317;29;20195;-83
2022/09/13 05:30:13;;;;;;;3.75;3.33;;;19.30;99.90;;;;;;4903371;29;20220;-84
2022/09/13 05:32:41;;;;;;;4.10;3.78;;;19.30;99.90;;;;;;4881763;29;20218;-83
2022/09/13 05:35:09;;;;;;;5.70;3.63;;;19.30;99.90;;;;;;4896379;29;20215;-84
2022/09/13 05:37:38;;;;;;;3.92;3.35;;;19.40;99.90;;;;;;4895220;29;20208;-83
2022/09/13 05:40:06;;;;;;;7.13;4.25;;;19.40;99.90;;;;;;4897021;29;20219;-84
2022/09/13 05:42:34;;;;;;;11.68;9.65;;;19.40;99.90;;;;;;4889164;29;20208;-83
2022/09/13 05:45:01;;;;;;;11.07;9.73;;;19.40;99.90;;;;;;4879312;29;20216;-83
2022/09/13 05:47:30;;;;;;;12.48;10.40;;;19.40;99.90;;;;;;4915368;29;20208;-83
2022/09/13 05:49:57;;;;;;;12.32;9.45;;;19.30;99.90;;;;;;4899417;29;20224;-83
2022/09/13 05:52:25;;;;;;;11.60;7.97;;;19.40;99.90;;;;;;4892088;29;20212;-83
2022/09/13 05:54:53;;;;;;;7.38;5.97;;;19.20;99.90;;;;;;4900769;29;20208;-83
2022/09/13 05:57:21;;;;;;;5.53;4.95;;;19.30;99.90;;;;;;4902447;29;20206;-83
2022/09/13 05:59:48;;;;;;;7.30;4.80;;;19.30;99.90;;;;;;4901522;29;20234;-83
2022/09/13 06:02:16;;;;;;;7.03;4.82;;;19.30;99.90;;;;;;4870756;29;20692;-83
2022/09/13 06:04:44;;;;;;;8.00;5.55;;;19.30;99.90;;;;;;4879732;29;20201;-83
2022/09/13 06:07:12;;;;;;;8.27;4.82;;;19.40;99.90;;;;;;4909239;29;20204;-83
2022/09/13 06:09:40;;;;;;;6.80;4.15;;;19.40;99.90;;;;;;4894450;29;20212;-83
2022/09/13 06:12:09;;;;;;;5.75;4.45;;;19.40;99.90;;;;;;4886540;29;20211;-83
2022/09/13 06:14:36;;;;;;;6.57;4.85;;;19.40;99.90;;;;;;4882944;29;20668;-83
2022/09/13 06:17:04;;;;;;;5.97;4.28;;;19.40;99.90;;;;;;4894853;29;20207;-83
2022/09/13 06:19:31;;;;;;;6.30;4.38;;;19.40;99.90;;;;;;4890382;29;20271;-83
2022/09/13 06:21:58;;;;;;;6.78;3.95;;;19.40;99.90;;;;;;4885597;29;20211;-84
2022/09/13 06:24:26;;;;;;;7.43;3.67;;;19.40;99.90;;;;;;4890838;29;20207;-83
2022/09/13 06:26:53;;;;;;;4.28;3.70;;;19.40;99.90;;;;;;4916367;29;20219;-83
2022/09/13 06:29:22;;;;;;;6.63;4.05;;;19.40;99.90;;;;;;4892012;29;20199;-83
2022/09/13 06:31:50;;;;;;;4.38;3.70;;;19.40;99.90;;;;;;4892634;29;20219;-83
2022/09/13 06:34:17;;;;;;;6.38;4.15;;;19.40;99.90;;;;;;4891384;29;20211;-83
2022/09/13 06:36:45;;;;;;;6.25;3.63;;;19.40;99.90;;;;;;4899431;29;20215;-83
2022/09/13 06:39:12;;;;;;;5.75;3.40;;;19.40;99.90;;;;;;4886774;29;20676;-83
2022/09/13 06:41:40;;;;;;;4.63;3.70;;;19.40;99.90;;;;;;4884461;29;20211;-83
2022/09/13 06:44:07;;;;;;;5.05;3.28;;;19.40;99.90;;;;;;4890920;29;20203;-83
2022/09/13 06:46:36;;;;;;;4.43;3.85;;;19.40;99.90;;;;;;4888392;29;20672;-83
2022/09/13 06:49:06;;;;;;;5.00;3.85;;;19.40;99.90;;;;;;4893693;29;20202;-83
2022/09/13 06:51:34;;;;;;;3.97;3.50;;;19.40;99.90;;;;;;4900421;29;20223;-83
2022/09/13 06:54:03;;;;;;;4.15;3.20;;;19.40;99.90;;;;;;4888450;29;20564;-83
2022/09/13 06:56:33;;;;;;;6.10;3.35;;;19.40;99.90;;;;;;4890302;29;20208;-83
2022/09/13 06:59:03;;;;;;;5.45;3.60;;;19.50;99.90;;;;;;4890325;29;20215;-83
2022/09/13 07:01:33;;;;;;;5.57;3.47;;;19.60;99.90;;;;;;4906573;29;20212;-83
2022/09/13 07:04:04;;;;;;;4.60;3.30;;;19.50;99.90;;;;;;4887430;29;20195;-83
2022/09/13 07:06:33;;;;;;;4.32;3.92;;;19.50;99.90;;;;;;4882850;29;20575;-84
2022/09/13 07:09:03;;;;;;;6.53;3.92;;;19.50;99.90;;;;;;4914844;29;20222;-84
2022/09/13 07:11:36;;;;;;;6.47;3.97;;;19.50;99.90;;;;;;4883669;29;20220;-84
2022/09/13 07:14:05;;;;;;;4.75;3.78;;;19.60;99.90;;;;;;4889117;29;20693;-84
2022/09/13 07:16:35;;;;;;;4.82;3.90;;;19.60;99.90;;;;;;4900064;29;20188;-84
2022/09/13 07:19:06;;;;;;;5.28;3.40;;;19.60;99.90;;;;;;4900931;29;20210;-84
2022/09/13 07:21:35;;;;;;;4.40;3.53;;;19.70;99.90;;;;;;4891612;29;20204;-84
2022/09/13 07:24:03;;;;;;;3.75;3.45;;;19.70;99.90;;;;;;4886916;29;20206;-84
2022/09/13 07:26:31;;;;;;;4.05;3.50;;;19.90;99.90;;;;;;4914558;29;20200;-84
2022/09/13 07:29:00;;;;;;;3.83;2.90;;;19.80;99.90;;;;;;4881946;29;20199;-83
2022/09/13 07:31:30;;;;;;;5.05;3.53;;;19.90;99.90;;;;;;4896775;29;20238;-84
2022/09/13 07:33:59;;;;;;;4.22;2.97;;;20.00;99.90;;;;;;4915748;29;20204;-84
2022/09/13 07:36:29;;;;;;;5.38;4.00;;;19.90;99.90;;;;;;4884350;29;20210;-84
2022/09/13 07:38:57;;;;;;;7.70;3.20;;;20.00;99.90;;;;;;4879150;29;20204;-84
2022/09/13 07:41:26;;;;;;;5.43;3.60;;;20.10;99.90;;;;;;4882588;29;20215;-84
2022/09/13 07:43:53;;;;;;;4.65;3.35;;;20.10;99.90;;;;;;4889869;29;20204;-84
2022/09/13 07:46:23;;;;;;;5.60;3.65;;;20.20;99.90;;;;;;4898158;29;20210;-84
2022/09/13 07:48:53;;;;;;;8.65;3.80;;;20.20;99.90;;;;;;4897946;29;20204;-84
2022/09/13 07:51:22;;;;;;;5.18;3.80;;;20.30;99.90;;;;;;4892941;29;20216;-84
2022/09/13 07:53:52;;;;;;;4.00;3.38;;;20.30;99.90;;;;;;4891116;29;20703;-84
2022/09/13 07:56:21;;;;;;;4.78;3.40;;;20.30;99.90;;;;;;4924583;29;20204;-84
2022/09/13 07:58:51;;;;;;;5.30;3.60;;;20.40;99.90;;;;;;4881486;29;20215;-84
2022/09/13 08:01:21;;;;;;;5.70;3.42;;;20.50;99.90;;;;;;4917626;29;20215;-83
2022/09/13 08:03:53;;;;;;;3.90;3.33;;;20.60;99.90;;;;;;4913874;29;20210;-84
2022/09/13 08:06:21;;;;;;;3.90;3.42;;;20.60;99.90;;;;;;4883980;29;20206;-84
2022/09/13 08:08:50;;;;;;;3.95;3.55;;;20.60;99.90;;;;;;4888870;29;20567;-84
2022/09/13 08:11:20;;;;;;;9.52;4.15;;;20.50;99.90;;;;;;4881254;29;20224;-84
2022/09/13 08:13:49;;;;;;;5.53;4.18;;;20.50;99.90;;;;;;4918987;29;20235;-84
2022/09/13 08:16:18;;;;;;;4.97;3.85;;;20.50;99.90;;;;;;4881126;29;20215;-84
2022/09/13 08:18:47;;;;;;;5.97;4.38;;;20.50;99.90;;;;;;4883048;29;20214;-84
2022/09/13 08:21:15;;;;;;;7.78;4.25;;;20.60;99.90;;;;;;4883940;29;20229;-84
2022/09/13 08:23:43;;;;;;;5.85;3.85;;;20.70;99.90;;;;;;4912223;29;20683;-84
2022/09/13 08:26:12;;;;;;;5.72;4.53;;;20.70;99.90;;;;;;4898609;29;20191;-84
2022/09/13 08:28:41;;;;;;;6.28;4.82;;;20.80;99.90;;;;;;4881285;29;20203;-84
2022/09/13 08:31:11;;;;;;;6.78;4.63;;;20.90;99.90;;;;;;4884531;29;20231;-84
2022/09/13 08:33:38;;;;;;;6.65;4.80;;;21.00;99.90;;;;;;4896075;29;20228;-84
2022/09/13 08:36:06;;;;;;;6.47;5.13;;;21.10;99.90;;;;;;4896777;29;20207;-84
2022/09/13 08:38:33;;;;;;;5.22;4.50;;;21.20;99.90;;;;;;4896615;29;20204;-84
2022/09/13 08:41:04;;;;;;;5.55;4.78;;;21.20;99.90;;;;;;4896602;29;20219;-84
2022/09/13 08:43:45;;;;;;;7.68;5.43;;;21.20;99.90;;;;;;4896442;29;20201;-84
2022/09/13 08:46:21;;;;;;;6.72;4.95;;;21.20;99.90;;;;;;4917272;29;20211;-84
2022/09/13 08:48:53;;;;;;;6.40;4.88;;;21.30;99.90;;;;;;4887694;29;20560;-84
2022/09/13 08:51:29;;;;;;;7.93;5.18;;;21.30;99.90;;;;;;4922230;29;20219;-84
2022/09/13 08:53:57;;;;;;;6.65;4.50;;;21.40;99.90;;;;;;4882585;29;20239;-84
2022/09/13 08:56:35;;;;;;;6.93;5.80;;;21.60;99.90;;;;;;4900470;29;20196;-84
2022/09/13 08:59:17;;;;;;;7.90;5.90;;;21.60;99.90;;;;;;4915487;29;20571;-84
2022/09/13 09:01:53;;;;;;;7.57;5.65;;;21.50;99.90;;;;;;4883128;29;20208;-84
2022/09/13 09:04:35;;;;;;;7.40;4.95;;;21.50;99.90;;;;;;4883481;29;20574;-84
2022/09/13 09:07:09;;;;;;;8.80;6.18;;;21.60;99.90;;;;;;4892503;29;20206;-84
2022/09/13 09:09:42;;;;;;;8.30;5.95;;;21.70;99.90;;;;;;4886623;29;20231;-84
2022/09/13 09:12:17;;;;;;;8.57;6.28;;;21.70;99.90;;;;;;4912406;29;20202;-84
2022/09/13 09:14:55;;;;;;;10.15;6.18;;;21.70;99.90;;;;;;4891641;29;20203;-84
2022/09/13 09:17:26;;;;;;;7.60;6.75;;;21.70;99.90;;;;;;4890022;29;20207;-84
2022/09/13 09:20:01;;;;;;;8.70;6.07;;;21.70;99.90;;;;;;4878538;29;20235;-84
2022/09/13 09:22:34;;;;;;;7.03;5.65;;;21.80;99.90;;;;;;4925011;29;20199;-84
2022/09/13 09:25:02;;;;;;;7.32;6.63;;;21.70;99.90;;;;;;4891830;29;20208;-84
2022/09/13 09:27:31;;;;;;;6.55;5.60;;;21.80;99.90;;;;;;4917903;29;20215;-84
2022/09/13 09:30:02;;;;;;;8.05;6.43;;;21.90;99.90;;;;;;4918089;29;20226;-84
2022/09/13 09:32:47;;;;;;;7.93;6.72;;;21.90;99.90;;;;;;4888114;29;20232;-84
2022/09/13 09:35:22;;;;;;;9.77;6.78;;;21.90;99.90;;;;;;4889202;29;20206;-84
2022/09/13 09:38:10;;;;;;;8.25;6.00;;;21.90;99.90;;;;;;4895573;29;20205;-84
2022/09/13 09:40:38;;;;;;;7.38;5.68;;;22.00;99.90;;;;;;4904216;29;20219;-84
2022/09/13 09:43:15;;;;;;;9.35;6.75;;;22.20;99.90;;;;;;4896989;29;20196;-84
2022/09/13 09:45:46;;;;;;;8.45;5.47;;;22.30;99.90;;;;;;4890747;29;20691;-84
2022/09/13 09:48:19;;;;;;;6.32;5.70;;;22.40;99.90;;;;;;4888322;29;20208;-82
2022/09/13 09:50:50;;;;;;;7.72;6.30;;;22.30;99.90;;;;;;4925898;29;20228;-82
2022/09/13 09:53:25;;;;;;;8.15;6.25;;;22.30;99.90;;;;;;4917960;29;20231;-82
2022/09/13 09:55:59;;;;;;;12.55;6.10;;;22.40;99.90;;;;;;4887841;29;20211;-82
2022/09/13 09:58:40;;;;;;;8.52;5.93;;;22.50;99.90;;;;;;4879467;29;20208;-82
2022/09/13 10:01:20;;;;;;;8.85;6.00;;;22.50;99.90;;;;;;4897321;29;20232;-82
2022/09/13 10:03:54;;;;;;;7.68;5.93;;;22.60;99.90;;;;;;4891252;29;20569;-82
2022/09/13 10:06:24;;;;;;;10.57;6.30;;;22.70;99.90;;;;;;4892046;29;20203;-82
2022/09/13 10:08:57;;;;;;;9.07;5.80;;;22.80;99.90;;;;;;4891250;29;20542;-82
2022/09/13 10:11:26;;;;;;;10.52;6.95;;;22.90;99.90;;;;;;4892024;29;20223;-82
2022/09/13 10:14:02;;;;;;;9.48;6.68;;;22.80;99.90;;;;;;4891451;29;20224;-82
2022/09/13 10:16:31;;;;;;;9.60;5.63;;;22.80;99.90;;;;;;4902736;29;20213;-82
2022/09/13 10:19:31;;;;;;;8.63;5.97;;;22.90;99.90;;;;;;4906770;29;20208;-82
2022/09/13 10:22:04;;;;;;;8.85;6.13;;;23.00;99.90;;;;;;4883568;29;20195;-85
2022/09/13 10:24:32;;;;;;;10.75;6.95;;;23.10;99.90;;;;;;4883855;29;20652;-85
2022/09/13 10:27:01;;;;;;;8.25;6.63;;;23.00;99.90;;;;;;4882190;29;20208;-85
2022/09/13 10:29:30;;;;;;;8.60;5.68;;;23.00;99.90;;;;;;4882481;29;20219;-85
2022/09/13 10:32:03;;;;;;;7.20;5.38;;;23.20;99.90;;;;;;4923566;29;20218;-84
2022/09/13 10:34:34;;;;;;;9.10;5.45;;;23.40;99.90;;;;;;4895270;29;20216;-85
2022/09/13 10:37:05;;;;;;;6.75;4.88;;;23.40;99.90;;;;;;4894862;29;20692;-84
2022/09/13 10:39:36;;;;;;;8.23;5.65;;;23.40;99.90;;;;;;4884291;29;20592;-85
2022/09/13 10:42:06;;;;;;;5.88;4.72;;;23.40;99.90;;;;;;4892832;29;20218;-85
2022/09/13 10:44:40;;;;;;;6.78;4.55;;;23.60;99.90;;;;;;4883326;29;20227;-85
2022/09/13 10:47:14;;;;;;;6.70;4.82;;;23.90;99.90;;;;;;4887640;29;20227;-85
2022/09/13 10:49:46;;;;;;;7.88;5.20;;;24.00;99.90;;;;;;4885925;29;20592;-85
2022/09/13 10:52:29;;;;;;;8.25;5.25;;;24.00;99.90;;;;;;4898009;29;20211;-85
2022/09/13 10:55:30;;;;;;;6.47;4.82;;;24.10;99.90;;;;;;4932393;29;20219;-85
2022/09/13 10:58:17;;;;;;;6.25;5.55;;;24.00;99.90;;;;;;4901303;29;20569;-83
2022/09/13 11:01:15;;;;;;;9.10;5.85;;;24.30;99.90;;;;;;4902767;29;20220;-82
2022/09/13 11:04:18;;;;;;;7.95;5.97;;;24.30;99.90;;;;;;4925824;29;20680;-82
2022/09/13 11:06:54;;;;;;;5.63;5.07;;;24.60;99.90;;;;;;4874646;29;20195;-82
2022/09/13 11:09:27;;;;;;;8.13;4.60;;;24.80;99.30;;;;;;4890686;29;20217;-82
2022/09/13 11:12:02;;;;;;;6.78;5.32;;;24.60;99.90;;;;;;4888655;29;20204;-82
2022/09/13 11:14:45;;;;;;;6.75;5.22;;;24.50;99.90;;;;;;4887138;29;20708;-82
2022/09/13 11:17:23;;;;;;;9.25;6.25;;;24.50;99.90;;;;;;4868816;29;20677;-82
2022/09/13 11:20:04;;;;;;;8.88;7.03;;;24.40;99.90;;;;;;4888378;29;20242;-82
2022/09/13 11:22:50;;;;;;;6.97;5.07;;;24.40;99.90;;;;;;4888835;29;20208;-82
2022/09/13 11:25:30;;;;;;;8.27;5.65;;;24.80;99.90;;;;;;4894883;29;20204;-82
2022/09/13 11:28:04;;;;;;;9.80;6.32;;;24.60;99.90;;;;;;4886590;29;20683;-85
2022/09/13 11:30:42;;;;;;;7.95;7.15;;;24.90;99.90;;;;;;4917856;29;20234;-82
2022/09/13 11:33:28;;;;;;;7.70;6.63;;;24.90;99.50;;;;;;4886727;29;20595;-82
2022/09/13 11:36:16;;;;;;;9.30;6.65;;;24.80;99.80;;;;;;4890436;29;20567;-82
2022/09/13 11:38:58;;;;;;;8.60;5.75;;;25.10;99.80;;;;;;4902297;29;20223;-82
2022/09/13 11:41:36;;;;;;;9.90;6.05;;;25.60;98.90;;;;;;4888681;29;20224;-82
2022/09/13 11:45:04;;;;;;;6.75;5.20;;;25.30;98.40;;;;;;4918440;29;20207;-82
2022/09/13 11:47:44;;;;;;;9.10;5.80;;;24.90;99.50;;;;;;4863372;29;20205;-82
2022/09/13 11:50:27;;;;;;;6.53;6.03;;;25.00;99.40;;;;;;4863451;29;20225;-82
2022/09/13 11:53:07;;;;;;;8.43;5.78;;;25.00;98.90;;;;;;4906239;29;20200;-82
2022/09/13 11:55:41;;;;;;;7.60;6.38;;;25.10;98.70;;;;;;4893956;29;20204;-82
2022/09/13 11:58:14;;;;;;;7.05;5.38;;;25.10;99.10;;;;;;4917953;29;20199;-82
2022/09/13 12:00:46;;;;;;;6.00;5.38;;;25.40;99.10;;;;;;4885356;29;20232;-82
2022/09/13 12:03:21;;;;;;;8.60;6.55;;;25.90;98.30;;;;;;4885967;29;20203;-82
2022/09/13 12:05:52;;;;;;;8.15;6.78;;;25.90;98.30;;;;;;4886428;29;20203;-82
2022/09/13 12:08:22;;;;;;;9.15;7.07;;;25.60;99.20;;;;;;4886372;29;20207;-82
2022/09/13 12:10:55;;;;;;;9.57;8.50;;;25.20;99.60;;;;;;4886388;29;20227;-82
2022/09/13 12:13:26;;;;;;;9.75;8.48;;;25.20;99.90;;;;;;4885851;29;20715;-82
2022/09/13 12:15:57;;;;;;;7.95;6.65;;;25.00;99.90;;;;;;4885211;29;20588;-84
2022/09/13 12:18:29;;;;;;;8.10;6.82;;;25.40;99.90;;;;;;4885318;29;20200;-83
2022/09/13 12:21:00;;;;;;;9.93;7.75;;;25.30;99.90;;;;;;4885342;29;20223;-83
2022/09/13 12:23:32;;;;;;;7.20;6.55;;;25.40;99.90;;;;;;4890398;29;20211;-83
2022/09/13 12:26:05;;;;;;;8.05;7.25;;;25.50;99.90;;;;;;4901875;29;20211;-83
2022/09/13 12:28:37;;;;;;;9.70;7.18;;;25.50;99.90;;;;;;4900597;29;20200;-83
2022/09/13 12:31:10;;;;;;;8.38;7.18;;;25.30;99.50;;;;;;4885462;29;20231;-83
2022/09/13 12:33:40;;;;;;;9.48;8.45;;;25.40;99.30;;;;;;4913088;23;20231;-80
2022/09/13 12:36:35;;;;;;;8.93;7.78;;;25.40;98.90;;;;;;4911433;29;20202;-80
2022/09/13 12:39:28;;;;;;;9.00;7.47;;;25.50;99.30;;;;;;4903843;29;20211;-80
2022/09/13 12:42:18;;;;;;;8.55;7.47;;;25.60;99.50;;;;;;4906823;29;20202;-80
2022/09/13 12:44:56;;;;;;;10.50;9.18;;;26.00;98.70;;;;;;4897046;29;20215;-80
2022/09/13 12:47:47;;;;;;;9.43;8.43;;;25.90;98.10;;;;;;4914316;29;20202;-80
2022/09/13 12:50:39;;;;;;;10.95;7.88;;;25.80;98.70;;;;;;4911917;29;20218;-80
2022/09/13 12:53:22;;;;;;;9.52;8.63;;;26.60;97.20;;;;;;4917012;29;20214;-80
2022/09/13 12:56:10;;;;;;;11.35;8.48;;;26.80;96.40;;;;;;4904375;29;20206;-82
2022/09/13 12:59:00;;;;;;;12.48;9.82;;;26.80;97.10;;;;;;4913978;29;20203;-83
2022/09/13 13:01:30;;;;;;;9.40;8.50;;;26.80;97.50;;;;;;4912999;29;20214;-83
2022/09/13 13:04:03;;;;;;;9.25;7.63;;;27.10;96.30;;;;;;4906640;29;20231;-83
2022/09/13 13:06:34;;;;;;;9.25;8.35;;;27.30;96.10;;;;;;4931691;29;20202;-83
2022/09/13 13:09:05;;;;;;;11.35;9.52;;;27.10;96.10;;;;;;4914844;29;20790;-81
2022/09/13 13:11:44;;;;;;;10.40;9.40;;;27.00;96.40;;;;;;4926579;29;20206;-81
2022/09/13 13:14:45;;;;;;;10.35;9.23;;;27.00;96.60;;;;;;4919887;29;20227;-81
2022/09/13 13:17:44;;;;;;;8.38;7.47;;;27.70;95.90;;;;;;4908894;29;20211;-81
2022/09/13 13:21:03;;;;;;;7.93;7.18;;;28.20;95.20;;;;;;4912346;29;20203;-81